sensor_id;sensor_type;location;lat;lon;timestamp;pressure;altitude;pressure_sealevel;temperature;humidity
8627;BME280;4351;51.422;6.794;2022-12-11T00:00:37;98713.59;;;1.21;100.00
8627;BME280;4351;51.422;6.794;2022-12-11T00:03:07;98728.53;;;0.89;100.00
8627;BME280;4351;51.422;6.794;2022-12-11T00:05:42;98728.59;;;0.88;100.00
8627;BME280;4351;51.422;6.794;2022-12-11T00:08:11;98724.78;;;0.94;100.00
8627;BME280;4351;51.422;6.794;2022-12-11T00:10:39;98721.44;;;0.90;100.00
8627;BME280;4351;51.422;6.794;2022-12-11T00:13:13;98725.78;;;0.91;100.00
8627;BME280;4351;51.422;6.794;2022-12-11T00:15:41;98723.75;;;0.96;100.00
8627;BME280;4351;51.422;6.794;2022-12-11T00:18:12;98714.25;;;1.08;100.00
8627;BME280;4351;51.422;6.794;2022-12-11T00:20:40;98707.25;;;1.23;100.00
8627;BME280;4351;51.422;6.794;2022-12-11T00:23:08;98718.41;;;1.14;100.00
8627;BME280;4351;51.422;6.794;2022-12-11T00:25:40;98715.75;;;1.14;100.00
8627;BME280;4351;51.422;6.794;2022-12-11T00:28:08;98707.78;;;1.14;100.00
8627;BME280;4351;51.422;6.794;2022-12-11T00:30:38;98719.41;;;1.11;100.00
8627;BME280;4351;51.422;6.794;2022-12-11T00:33:09;98723.97;;;1.09;100.00
8627;BME280;4351;51.422;6.794;2022-12-11T00:35:40;98713.25;;;1.11;100.00
8627;BME280;4351;51.422;6.794;2022-12-11T00:38:13;98722.47;;;1.03;100.00
8627;BME280;4351;51.422;6.794;2022-12-11T00:40:41;98726.75;;;0.90;100.00
8627;BME280;4351;51.422;6.794;2022-12-11T00:43:09;98717.78;;;1.09;100.00
8627;BME280;4351;51.422;6.794;2022-12-11T00:45:39;98716.75;;;1.11;100.00
8627;BME280;4351;51.422;6.794;2022-12-11T00:48:08;98729.50;;;1.05;100.00
8627;BME280;4351;51.422;6.794;2022-12-11T00:50:36;98731.19;;;0.89;100.00
8627;BME280;4351;51.422;6.794;2022-12-11T00:53:06;98731.88;;;0.93;100.00
8627;BME280;4351;51.422;6.794;2022-12-11T00:55:36;98732.56;;;0.97;100.00
8627;BME280;4351;51.422;6.794;2022-12-11T00:58:04;98729.91;;;0.97;100.00
8627;BME280;4351;51.422;6.794;2022-12-11T01:00:32;98715.47;;;1.02;100.00
8627;BME280;4351;51.422;6.794;2022-12-11T01:03:00;98710.50;;;1.12;100.00
8627;BME280;4351;51.422;6.794;2022-12-11T01:05:29;98715.28;;;1.06;100.00
8627;BME280;4351;51.422;6.794;2022-12-11T01:07:57;98718.41;;;1.14;100.00
8627;BME280;4351;51.422;6.794;2022-12-11T01:10:27;98722.00;;;1.13;100.00
8627;BME280;4351;51.422;6.794;2022-12-11T01:12:55;98727.09;;;1.00;100.00
8627;BME280;4351;51.422;6.794;2022-12-11T01:15:26;98719.56;;;1.08;100.00
8627;BME280;4351;51.422;6.794;2022-12-11T01:17:55;98723.09;;;1.09;100.00
8627;BME280;4351;51.422;6.794;2022-12-11T01:20:25;98714.78;;;1.15;100.00
8627;BME280;4351;51.422;6.794;2022-12-11T01:22:54;98730.31;;;0.89;100.00
8627;BME280;4351;51.422;6.794;2022-12-11T01:25:23;98725.06;;;1.05;100.00
8627;BME280;4351;51.422;6.794;2022-12-11T01:27:54;98723.09;;;1.09;100.00
8627;BME280;4351;51.422;6.794;2022-12-11T01:30:24;98736.50;;;0.89;100.00
8627;BME280;4351;51.422;6.794;2022-12-11T01:32:52;98728.66;;;1.04;100.00
8627;BME280;4351;51.422;6.794;2022-12-11T01:35:20;98733.28;;;1.00;100.00
8627;BME280;4351;51.422;6.794;2022-12-11T01:37:48;98741.38;;;0.97;100.00
8627;BME280;4351;51.422;6.794;2022-12-11T01:40:18;98741.03;;;0.87;100.00
8627;BME280;4351;51.422;6.794;2022-12-11T01:42:46;98728.72;;;1.02;100.00
8627;BME280;4351;51.422;6.794;2022-12-11T01:45:31;98736.41;;;0.91;100.00
8627;BME280;4351;51.422;6.794;2022-12-11T01:48:04;98725.59;;;1.12;100.00
8627;BME280;4351;51.422;6.794;2022-12-11T01:50:36;98731.06;;;1.09;100.00
8627;BME280;4351;51.422;6.794;2022-12-11T01:53:06;98737.72;;;1.00;100.00
8627;BME280;4351;51.422;6.794;2022-12-11T01:55:37;98727.28;;;1.13;100.00
8627;BME280;4351;51.422;6.794;2022-12-11T01:58:07;98740.47;;;0.98;100.00
8627;BME280;4351;51.422;6.794;2022-12-11T02:00:36;98740.47;;;0.98;100.00
8627;BME280;4351;51.422;6.794;2022-12-11T02:03:04;98745.34;;;0.72;100.00
8627;BME280;4351;51.422;6.794;2022-12-11T02:05:32;98729.06;;;0.96;100.00
8627;BME280;4351;51.422;6.794;2022-12-11T02:08:01;98728.03;;;0.99;100.00
8627;BME280;4351;51.422;6.794;2022-12-11T02:10:47;98720.78;;;1.02;100.00
8627;BME280;4351;51.422;6.794;2022-12-11T02:13:21;98720.59;;;1.06;100.00
8627;BME280;4351;51.422;6.794;2022-12-11T02:15:59;98723.09;;;1.09;100.00
8627;BME280;4351;51.422;6.794;2022-12-11T02:18:33;98716.34;;;1.19;100.00
8627;BME280;4351;51.422;6.794;2022-12-11T02:21:08;98721.38;;;1.08;100.00
8627;BME280;4351;51.422;6.794;2022-12-11T02:23:54;98710.28;;;0.99;100.00
8627;BME280;4351;51.422;6.794;2022-12-11T02:26:35;98714.78;;;1.15;100.00
8627;BME280;4351;51.422;6.794;2022-12-11T02:29:12;98706.06;;;1.13;100.00
8627;BME280;4351;51.422;6.794;2022-12-11T02:31:48;98729.84;;;0.98;100.00
8627;BME280;4351;51.422;6.794;2022-12-11T02:34:22;98715.75;;;1.14;100.00
8627;BME280;4351;51.422;6.794;2022-12-11T02:36:56;98726.47;;;0.95;100.00
8627;BME280;4351;51.422;6.794;2022-12-11T02:39:26;98715.47;;;1.02;100.00
8627;BME280;4351;51.422;6.794;2022-12-11T02:41:55;98720.78;;;1.02;100.00
8627;BME280;4351;51.422;6.794;2022-12-11T02:44:27;98718.88;;;1.05;100.00
8627;BME280;4351;51.422;6.794;2022-12-11T02:46:57;98712.47;;;1.09;100.00
8627;BME280;4351;51.422;6.794;2022-12-11T02:49:27;98711.59;;;1.08;100.00
8627;BME280;4351;51.422;6.794;2022-12-11T02:51:55;98706.06;;;1.13;100.00
8627;BME280;4351;51.422;6.794;2022-12-11T02:54:28;98715.59;;;0.99;100.00
8627;BME280;4351;51.422;6.794;2022-12-11T02:57:01;98713.72;;;1.01;100.00
8627;BME280;4351;51.422;6.794;2022-12-11T02:59:34;98708.78;;;1.11;100.00
8627;BME280;4351;51.422;6.794;2022-12-11T03:02:03;98721.56;;;0.87;100.00
8627;BME280;4351;51.422;6.794;2022-12-11T03:04:33;98716.81;;;0.94;100.00
8627;BME280;4351;51.422;6.794;2022-12-11T03:07:08;98708.75;;;0.95;100.00
8627;BME280;4351;51.422;6.794;2022-12-11T03:09:39;98691.50;;;1.20;100.00
8627;BME280;4351;51.422;6.794;2022-12-11T03:12:08;98708.25;;;1.05;100.00
8627;BME280;4351;51.422;6.794;2022-12-11T03:14:40;98698.69;;;1.18;100.00
8627;BME280;4351;51.422;6.794;2022-12-11T03:17:13;98696.72;;;1.22;100.00
8627;BME280;4351;51.422;6.794;2022-12-11T03:19:47;98695.28;;;1.16;100.00
8627;BME280;4351;51.422;6.794;2022-12-11T03:22:20;98699.69;;;0.99;100.00
8627;BME280;4351;51.422;6.794;2022-12-11T03:24:51;98699.03;;;1.12;100.00
8627;BME280;4351;51.422;6.794;2022-12-11T03:27:26;98690.72;;;1.18;100.00
8627;BME280;4351;51.422;6.794;2022-12-11T03:29:58;98685.41;;;1.18;100.00
8627;BME280;4351;51.422;6.794;2022-12-11T03:32:29;98689.34;;;1.11;100.00
8627;BME280;4351;51.422;6.794;2022-12-11T03:35:02;98684.31;;;1.22;100.00
8627;BME280;4351;51.422;6.794;2022-12-11T03:37:34;98697.03;;;0.99;100.00
8627;BME280;4351;51.422;6.794;2022-12-11T03:40:06;98692.63;;;1.16;100.00
8627;BME280;4351;51.422;6.794;2022-12-11T03:42:38;98695.50;;;1.11;100.00
8627;BME280;4351;51.422;6.794;2022-12-11T03:45:09;98689.44;;;1.25;100.00
8627;BME280;4351;51.422;6.794;2022-12-11T03:47:38;98683.28;;;1.25;100.00
8627;BME280;4351;51.422;6.794;2022-12-11T03:50:09;98683.09;;;1.28;100.00
8627;BME280;4351;51.422;6.794;2022-12-11T03:52:39;98685.75;;;1.12;100.00
8627;BME280;4351;51.422;6.794;2022-12-11T03:55:13;98690.25;;;1.10;100.00
8627;BME280;4351;51.422;6.794;2022-12-11T03:57:42;98676.91;;;1.28;100.00
8627;BME280;4351;51.422;6.794;2022-12-11T04:00:15;98695.56;;;1.10;100.00
8627;BME280;4351;51.422;6.794;2022-12-11T04:02:44;98685.66;;;1.13;100.00
8627;BME280;4351;51.422;6.794;2022-12-11T04:05:38;98689.19;;;1.14;100.00
8627;BME280;4351;51.422;6.794;2022-12-11T04:08:06;98692.47;;;1.01;100.00
8627;BME280;4351;51.422;6.794;2022-12-11T04:10:34;98680.16;;;1.17;100.00
8627;BME280;4351;51.422;6.794;2022-12-11T04:13:02;98680.69;;;1.23;100.00
8627;BME280;4351;51.422;6.794;2022-12-11T04:15:31;98677.78;;;1.12;100.00
8627;BME280;4351;51.422;6.794;2022-12-11T04:17:58;98677.31;;;1.03;100.00
8627;BME280;4351;51.422;6.794;2022-12-11T04:20:43;98676.22;;;1.08;100.00
8627;BME280;4351;51.422;6.794;2022-12-11T04:23:29;98663.56;;;1.29;100.00
8627;BME280;4351;51.422;6.794;2022-12-11T04:26:16;98669.63;;;1.15;100.00
8627;BME280;4351;51.422;6.794;2022-12-11T04:28:46;98665.28;;;1.14;100.00
8627;BME280;4351;51.422;6.794;2022-12-11T04:31:17;98661.50;;;1.18;100.00
8627;BME280;4351;51.422;6.794;2022-12-11T04:33:46;98656.53;;;1.12;100.00
8627;BME280;4351;51.422;6.794;2022-12-11T04:36:14;98665.44;;;1.11;100.00
8627;BME280;4351;51.422;6.794;2022-12-11T04:38:43;98656.78;;;1.23;100.00
8627;BME280;4351;51.422;6.794;2022-12-11T04:41:13;98655.50;;;1.14;100.00
8627;BME280;4351;51.422;6.794;2022-12-11T04:43:42;98649.00;;;1.20;100.00
8627;BME280;4351;51.422;6.794;2022-12-11T04:46:12;98649.94;;;1.19;100.00
8627;BME280;4351;51.422;6.794;2022-12-11T04:48:43;98645.31;;;1.23;100.00
8627;BME280;4351;51.422;6.794;2022-12-11T04:51:12;98646.50;;;1.17;100.00
8627;BME280;4351;51.422;6.794;2022-12-11T04:53:40;98644.81;;;1.16;100.00
8627;BME280;4351;51.422;6.794;2022-12-11T04:56:11;98652.22;;;0.93;100.00
8627;BME280;4351;51.422;6.794;2022-12-11T04:58:41;98658.97;;;0.99;100.00
8627;BME280;4351;51.422;6.794;2022-12-11T05:01:10;98642.31;;;1.13;100.00
8627;BME280;4351;51.422;6.794;2022-12-11T05:03:39;98655.13;;;0.88;100.00
8627;BME280;4351;51.422;6.794;2022-12-11T05:06:09;98648.72;;;1.09;100.00
8627;BME280;4351;51.422;6.794;2022-12-11T05:08:39;98648.47;;;1.13;100.00
8627;BME280;4351;51.422;6.794;2022-12-11T05:11:08;98647.88;;;1.24;100.00
8627;BME280;4351;51.422;6.794;2022-12-11T05:13:37;98644.22;;;1.27;100.00
8627;BME280;4351;51.422;6.794;2022-12-11T05:16:07;98642.47;;;1.10;100.00
8627;BME280;4351;51.422;6.794;2022-12-11T05:18:36;98641.97;;;1.19;100.00
8627;BME280;4351;51.422;6.794;2022-12-11T05:21:05;98655.84;;;1.08;100.00
8627;BME280;4351;51.422;6.794;2022-12-11T05:23:36;98667.16;;;1.12;100.00
8627;BME280;4351;51.422;6.794;2022-12-11T05:26:06;98651.03;;;1.15;100.00
8627;BME280;4351;51.422;6.794;2022-12-11T05:28:36;98660.47;;;1.05;100.00
8627;BME280;4351;51.422;6.794;2022-12-11T05:31:07;98651.56;;;1.22;100.00
8627;BME280;4351;51.422;6.794;2022-12-11T05:33:35;98646.88;;;1.27;100.00
8627;BME280;4351;51.422;6.794;2022-12-11T05:36:04;98653.69;;;1.15;100.00
8627;BME280;4351;51.422;6.794;2022-12-11T05:38:33;98645.38;;;1.21;100.00
8627;BME280;4351;51.422;6.794;2022-12-11T05:41:04;98637.06;;;1.28;100.00
8627;BME280;4351;51.422;6.794;2022-12-11T05:43:34;98642.06;;;1.18;100.00
8627;BME280;4351;51.422;6.794;2022-12-11T05:46:07;98640.59;;;1.12;100.00
8627;BME280;4351;51.422;6.794;2022-12-11T05:48:36;98630.16;;;1.25;100.00
8627;BME280;4351;51.422;6.794;2022-12-11T05:51:05;98632.88;;;1.23;100.00
8627;BME280;4351;51.422;6.794;2022-12-11T05:53:34;98639.56;;;0.98;100.00
8627;BME280;4351;51.422;6.794;2022-12-11T05:56:06;98637.66;;;1.17;100.00
8627;BME280;4351;51.422;6.794;2022-12-11T05:58:34;98629.28;;;1.24;100.00
8627;BME280;4351;51.422;6.794;2022-12-11T06:01:06;98629.97;;;1.12;100.00
8627;BME280;4351;51.422;6.794;2022-12-11T06:03:34;98625.31;;;1.32;100.00
8627;BME280;4351;51.422;6.794;2022-12-11T06:06:03;98626.53;;;1.26;100.00
8627;BME280;4351;51.422;6.794;2022-12-11T06:08:31;98629.38;;;1.23;100.00
8627;BME280;4351;51.422;6.794;2022-12-11T06:10:59;98633.84;;;1.22;100.00
8627;BME280;4351;51.422;6.794;2022-12-11T06:13:30;98630.16;;;1.25;100.00
8627;BME280;4351;51.422;6.794;2022-12-11T06:15:59;98625.31;;;1.32;100.00
8627;BME280;4351;51.422;6.794;2022-12-11T06:18:30;98632.88;;;1.23;100.00
8627;BME280;4351;51.422;6.794;2022-12-11T06:20:59;98629.78;;;1.15;100.00
8627;BME280;4351;51.422;6.794;2022-12-11T06:23:30;98628.75;;;1.01;100.00
8627;BME280;4351;51.422;6.794;2022-12-11T06:25:58;98625.16;;;1.19;100.00
8627;BME280;4351;51.422;6.794;2022-12-11T06:28:26;98615.41;;;1.19;100.00
8627;BME280;4351;51.422;6.794;2022-12-11T06:30:57;98615.91;;;1.26;100.00
8627;BME280;4351;51.422;6.794;2022-12-11T06:33:25;98617.44;;;1.30;100.00
8627;BME280;4351;51.422;6.794;2022-12-11T06:35:54;98626.38;;;1.29;100.00
8627;BME280;4351;51.422;6.794;2022-12-11T06:38:22;98636.84;;;1.16;100.00
8627;BME280;4351;51.422;6.794;2022-12-11T06:40:53;98620.56;;;1.22;100.00
8627;BME280;4351;51.422;6.794;2022-12-11T06:43:21;98634.78;;;1.05;100.00
8627;BME280;4351;51.422;6.794;2022-12-11T06:45:50;98628.19;;;1.29;100.00
8627;BME280;4351;51.422;6.794;2022-12-11T06:48:19;98617.44;;;1.30;100.00
8627;BME280;4351;51.422;6.794;2022-12-11T06:50:47;98624.13;;;1.21;100.00
8627;BME280;4351;51.422;6.794;2022-12-11T06:53:15;98626.88;;;1.20;100.00
8627;BME280;4351;51.422;6.794;2022-12-11T06:55:43;98632.09;;;1.21;100.00
8627;BME280;4351;51.422;6.794;2022-12-11T06:58:11;98611.28;;;1.30;100.00
8627;BME280;4351;51.422;6.794;2022-12-11T07:00:39;98621.41;;;1.23;100.00
8627;BME280;4351;51.422;6.794;2022-12-11T07:03:08;98620.91;;;1.16;100.00
8627;BME280;4351;51.422;6.794;2022-12-11T07:05:38;98625.53;;;1.29;100.00
8627;BME280;4351;51.422;6.794;2022-12-11T07:08:06;98628.53;;;1.22;100.00
8627;BME280;4351;51.422;6.794;2022-12-11T07:10:34;98632.19;;;1.20;100.00
8627;BME280;4351;51.422;6.794;2022-12-11T07:13:02;98625.31;;;1.32;100.00
8627;BME280;4351;51.422;6.794;2022-12-11T07:15:30;98628.59;;;1.21;100.00
8627;BME280;4351;51.422;6.794;2022-12-11T07:18:02;98632.97;;;1.38;100.00
8627;BME280;4351;51.422;6.794;2022-12-11T07:20:29;98635.78;;;1.35;100.00
8627;BME280;4351;51.422;6.794;2022-12-11T07:22:59;98645.31;;;1.23;100.00
8627;BME280;4351;51.422;6.794;2022-12-11T07:25:27;98631.34;;;1.35;100.00
8627;BME280;4351;51.422;6.794;2022-12-11T07:27:55;98647.47;;;1.16;100.00
8627;BME280;4351;51.422;6.794;2022-12-11T07:30:23;98645.72;;;1.15;100.00
8627;BME280;4351;51.422;6.794;2022-12-11T07:32:51;98642.91;;;1.18;100.00
8627;BME280;4351;51.422;6.794;2022-12-11T07:35:19;98631.19;;;1.22;100.00
8627;BME280;4351;51.422;6.794;2022-12-11T07:37:47;98636.66;;;1.19;100.00
8627;BME280;4351;51.422;6.794;2022-12-11T07:40:16;98645.22;;;1.08;100.00
8627;BME280;4351;51.422;6.794;2022-12-11T07:42:44;98647.28;;;1.19;100.00
8627;BME280;4351;51.422;6.794;2022-12-11T07:45:13;98634.41;;;1.28;100.00
8627;BME280;4351;51.422;6.794;2022-12-11T07:47:40;98646.59;;;1.32;100.00
8627;BME280;4351;51.422;6.794;2022-12-11T07:50:09;98649.69;;;1.24;100.00
8627;BME280;4351;51.422;6.794;2022-12-11T07:52:37;98653.53;;;1.18;100.00
8627;BME280;4351;51.422;6.794;2022-12-11T07:55:05;98662.88;;;1.09;100.00
8627;BME280;4351;51.422;6.794;2022-12-11T07:57:35;98657.13;;;1.17;100.00
8627;BME280;4351;51.422;6.794;2022-12-11T08:00:04;98654.06;;;1.25;100.00
8627;BME280;4351;51.422;6.794;2022-12-11T08:02:37;98656.53;;;1.12;100.00
8627;BME280;4351;51.422;6.794;2022-12-11T08:05:07;98661.50;;;1.18;100.00
8627;BME280;4351;51.422;6.794;2022-12-11T08:07:35;98654.50;;;1.33;100.00
8627;BME280;4351;51.422;6.794;2022-12-11T08:10:04;98656.63;;;1.26;100.00
8627;BME280;4351;51.422;6.794;2022-12-11T08:12:34;98661.66;;;1.15;100.00
8627;BME280;4351;51.422;6.794;2022-12-11T08:15:03;98657.91;;;1.19;100.00
8627;BME280;4351;51.422;6.794;2022-12-11T08:17:31;98661.41;;;1.20;100.00
8627;BME280;4351;51.422;6.794;2022-12-11T08:20:06;98654.13;;;1.23;100.00
8627;BME280;4351;51.422;6.794;2022-12-11T08:22:34;98655.09;;;1.22;100.00
8627;BME280;4351;51.422;6.794;2022-12-11T08:25:03;98654.66;;;1.14;100.00
8627;BME280;4351;51.422;6.794;2022-12-11T08:27:31;98656.78;;;1.23;100.00
8627;BME280;4351;51.422;6.794;2022-12-11T08:30:00;98661.91;;;1.10;100.00
8627;BME280;4351;51.422;6.794;2022-12-11T08:32:28;98659.50;;;1.06;100.00
8627;BME280;4351;51.422;6.794;2022-12-11T08:34:56;98658.25;;;1.13;100.00
8627;BME280;4351;51.422;6.794;2022-12-11T08:37:24;98654.75;;;1.29;100.00
8627;BME280;4351;51.422;6.794;2022-12-11T08:39:52;98654.75;;;1.29;100.00
8627;BME280;4351;51.422;6.794;2022-12-11T08:42:20;98645.91;;;1.44;100.00
8627;BME280;4351;51.422;6.794;2022-12-11T08:44:48;98658.94;;;1.33;100.00
8627;BME280;4351;51.422;6.794;2022-12-11T08:47:20;98653.47;;;1.36;100.00
8627;BME280;4351;51.422;6.794;2022-12-11T08:49:48;98663.81;;;1.24;100.00
8627;BME280;4351;51.422;6.794;2022-12-11T08:52:16;98650.53;;;1.41;100.00
8627;BME280;4351;51.422;6.794;2022-12-11T08:54:44;98637.84;;;1.46;100.00
8627;BME280;4351;51.422;6.794;2022-12-11T08:57:12;98648.31;;;1.49;100.00
8627;BME280;4351;51.422;6.794;2022-12-11T08:59:40;98655.78;;;1.42;100.00
8627;BME280;4351;51.422;6.794;2022-12-11T09:02:09;98652.16;;;1.43;100.00
8627;BME280;4351;51.422;6.794;2022-12-11T09:04:40;98652.59;;;1.52;100.00
8627;BME280;4351;51.422;6.794;2022-12-11T09:07:08;98651.47;;;1.56;100.00
8627;BME280;4351;51.422;6.794;2022-12-11T09:09:36;98656.00;;;1.54;100.00
8627;BME280;4351;51.422;6.794;2022-12-11T09:12:04;98659.63;;;1.53;100.00
8627;BME280;4351;51.422;6.794;2022-12-11T09:14:32;98667.19;;;1.44;100.00
8627;BME280;4351;51.422;6.794;2022-12-11T09:17:03;98666.06;;;1.48;100.00
8627;BME280;4351;51.422;6.794;2022-12-11T09:19:32;98665.09;;;1.49;100.00
8627;BME280;4351;51.422;6.794;2022-12-11T09:22:01;98670.78;;;1.27;100.00
8627;BME280;4351;51.422;6.794;2022-12-11T09:24:29;98668.00;;;1.45;100.00
8627;BME280;4351;51.422;6.794;2022-12-11T09:26:57;98673.50;;;1.42;100.00
8627;BME280;4351;51.422;6.794;2022-12-11T09:29:25;98661.31;;;1.54;100.00
8627;BME280;4351;51.422;6.794;2022-12-11T09:31:53;98657.06;;;1.51;100.00
8627;BME280;4351;51.422;6.794;2022-12-11T09:34:21;98661.25;;;1.55;100.00
8627;BME280;4351;51.422;6.794;2022-12-11T09:36:55;98660.28;;;1.56;100.00
8627;BME280;4351;51.422;6.794;2022-12-11T09:39:24;98673.16;;;1.48;100.00
8627;BME280;4351;51.422;6.794;2022-12-11T09:41:56;98674.91;;;1.49;100.00
8627;BME280;4351;51.422;6.794;2022-12-11T09:44:42;98680.97;;;1.35;100.00
8627;BME280;4351;51.422;6.794;2022-12-11T09:47:19;98678.84;;;1.42;100.00
8627;BME280;4351;51.422;6.794;2022-12-11T09:49:55;98668.69;;;1.65;100.00
8627;BME280;4351;51.422;6.794;2022-12-11T09:52:31;98690.31;;;1.42;100.00
8627;BME280;4351;51.422;6.794;2022-12-11T09:55:08;98682.16;;;1.62;100.00
8627;BME280;4351;51.422;6.794;2022-12-11T09:57:47;98686.19;;;1.53;100.00
8627;BME280;4351;51.422;6.794;2022-12-11T10:00:25;98689.13;;;1.64;100.00
8627;BME280;4351;51.422;6.794;2022-12-11T10:03:16;98686.22;;;1.69;100.00
8627;BME280;4351;51.422;6.794;2022-12-11T10:05:54;98694.34;;;1.66;100.00
8627;BME280;4351;51.422;6.794;2022-12-11T10:08:34;98701.19;;;1.70;100.00
8627;BME280;4351;51.422;6.794;2022-12-11T10:11:20;98698.03;;;1.63;100.00
8627;BME280;4351;51.422;6.794;2022-12-11T10:13:55;98707.28;;;1.56;100.00
8627;BME280;4351;51.422;6.794;2022-12-11T10:16:33;98712.28;;;1.62;100.00
8627;BME280;4351;51.422;6.794;2022-12-11T10:19:02;98720.66;;;1.54;100.00
8627;BME280;4351;51.422;6.794;2022-12-11T10:21:36;98707.19;;;1.74;100.00
8627;BME280;4351;51.422;6.794;2022-12-11T10:24:11;98711.56;;;1.75;100.00
8627;BME280;4351;51.422;6.794;2022-12-11T10:27:13;98732.31;;;1.52;100.00
8627;BME280;4351;51.422;6.794;2022-12-11T10:29:41;98735.31;;;1.45;100.00
8627;BME280;4351;51.422;6.794;2022-12-11T10:32:17;98728.53;;;1.56;100.00
8627;BME280;4351;51.422;6.794;2022-12-11T10:34:53;98729.16;;;1.61;100.00
8627;BME280;4351;51.422;6.794;2022-12-11T10:37:23;98728.91;;;1.66;100.00
8627;BME280;4351;51.422;6.794;2022-12-11T10:39:51;98728.22;;;1.78;100.00
8627;BME280;4351;51.422;6.794;2022-12-11T10:42:21;98742.94;;;1.52;100.00
8627;BME280;4351;51.422;6.794;2022-12-11T10:44:57;98756.41;;;1.48;100.00
8627;BME280;4351;51.422;6.794;2022-12-11T10:47:26;98760.91;;;1.30;100.00
8627;BME280;4351;51.422;6.794;2022-12-11T10:49:57;98747.53;;;1.32;100.00
8627;BME280;4351;51.422;6.794;2022-12-11T10:52:28;98735.69;;;1.55;100.00
8627;BME280;4351;51.422;6.794;2022-12-11T10:55:00;98734.38;;;1.63;100.00
8627;BME280;4351;51.422;6.794;2022-12-11T10:57:33;98744.06;;;1.47;100.00
8627;BME280;4351;51.422;6.794;2022-12-11T11:00:04;98741.91;;;1.54;100.00
8627;BME280;4351;51.422;6.794;2022-12-11T11:02:35;98739.50;;;1.49;100.00
8627;BME280;4351;51.422;6.794;2022-12-11T11:05:11;98736.94;;;1.48;100.00
8627;BME280;4351;51.422;6.794;2022-12-11T11:07:40;98722.38;;;1.71;100.00
8627;BME280;4351;51.422;6.794;2022-12-11T11:10:15;98726.31;;;1.80;100.00
8627;BME280;4351;51.422;6.794;2022-12-11T11:12:46;98724.44;;;1.66;100.00
8627;BME280;4351;51.422;6.794;2022-12-11T11:15:17;98720.94;;;1.82;100.00
8627;BME280;4351;51.422;6.794;2022-12-11T11:17:47;98736.53;;;1.72;100.00
8627;BME280;4351;51.422;6.794;2022-12-11T11:20:23;98736.63;;;1.70;100.00
8627;BME280;4351;51.422;6.794;2022-12-11T11:22:54;98736.53;;;1.88;100.00
8627;BME280;4351;51.422;6.794;2022-12-11T11:25:24;98754.97;;;1.59;100.00
8627;BME280;4351;51.422;6.794;2022-12-11T11:27:54;98759.06;;;1.48;100.00
8627;BME280;4351;51.422;6.794;2022-12-11T11:30:26;98753.16;;;1.43;100.00
8627;BME280;4351;51.422;6.794;2022-12-11T11:32:56;98737.47;;;1.55;100.00
8627;BME280;4351;51.422;6.794;2022-12-11T11:35:28;98742.97;;;1.68;100.00
8627;BME280;4351;51.422;6.794;2022-12-11T11:38:01;98736.88;;;1.82;100.00
8627;BME280;4351;51.422;6.794;2022-12-11T11:40:35;98744.50;;;1.72;100.00
8627;BME280;4351;51.422;6.794;2022-12-11T11:43:12;98733.94;;;1.87;100.00
8627;BME280;4351;51.422;6.794;2022-12-11T11:45:45;98747.25;;;1.70;100.00
8627;BME280;4351;51.422;6.794;2022-12-11T11:48:26;98749.81;;;1.56;100.00
8627;BME280;4351;51.422;6.794;2022-12-11T11:50:57;98747.84;;;1.59;100.00
8627;BME280;4351;51.422;6.794;2022-12-11T11:53:29;98725.28;;;1.83;100.00
8627;BME280;4351;51.422;6.794;2022-12-11T11:56:04;98738.59;;;1.83;100.00
8627;BME280;4351;51.422;6.794;2022-12-11T11:58:44;98739.34;;;1.85;100.00
8627;BME280;4351;51.422;6.794;2022-12-11T12:01:17;98737.31;;;1.90;100.00
8627;BME280;4351;51.422;6.794;2022-12-11T12:03:46;98741.25;;;1.83;100.00
8627;BME280;4351;51.422;6.794;2022-12-11T12:06:22;98736.44;;;1.90;100.00
8627;BME280;4351;51.422;6.794;2022-12-11T12:08:58;98739.00;;;1.91;100.00
8627;BME280;4351;51.422;6.794;2022-12-11T12:11:33;98752.13;;;1.78;100.00
8627;BME280;4351;51.422;6.794;2022-12-11T12:14:13;98736.19;;;1.94;100.00
8627;BME280;4351;51.422;6.794;2022-12-11T12:17:11;98751.38;;;1.76;100.00
8627;BME280;4351;51.422;6.794;2022-12-11T12:19:49;98732.09;;;2.20;100.00
8627;BME280;4351;51.422;6.794;2022-12-11T12:22:39;98756.69;;;1.92;100.00
8627;BME280;4351;51.422;6.794;2022-12-11T12:25:18;98752.16;;;1.94;100.00
8627;BME280;4351;51.422;6.794;2022-12-11T12:27:55;98753.25;;;1.90;100.00
8627;BME280;4351;51.422;6.794;2022-12-11T12:30:30;98753.94;;;1.94;100.00
8627;BME280;4351;51.422;6.794;2022-12-11T12:33:13;98759.09;;;1.81;100.00
8627;BME280;4351;51.422;6.794;2022-12-11T12:35:54;98755.81;;;1.92;100.00
8627;BME280;4351;51.422;6.794;2022-12-11T12:38:36;98748.81;;;1.75;100.00
8627;BME280;4351;51.422;6.794;2022-12-11T12:41:13;98752.47;;;1.72;100.00
8627;BME280;4351;51.422;6.794;2022-12-11T12:43:58;98757.03;;;1.70;100.00
8627;BME280;4351;51.422;6.794;2022-12-11T12:46:42;98746.47;;;1.84;100.00
8627;BME280;4351;51.422;6.794;2022-12-11T12:49:16;98754.88;;;1.77;100.00
8627;BME280;4351;51.422;6.794;2022-12-11T12:51:46;98743.22;;;1.95;100.00
8627;BME280;4351;51.422;6.794;2022-12-11T12:54:17;98741.91;;;2.03;100.00
8627;BME280;4351;51.422;6.794;2022-12-11T12:56:47;98729.03;;;2.11;100.00
8627;BME280;4351;51.422;6.794;2022-12-11T12:59:20;98732.06;;;2.05;100.00
8627;BME280;4351;51.422;6.794;2022-12-11T13:01:53;98756.28;;;1.84;100.00
8627;BME280;4351;51.422;6.794;2022-12-11T13:04:32;98743.56;;;2.05;100.00
8627;BME280;4351;51.422;6.794;2022-12-11T13:07:24;98753.06;;;1.93;100.00
8627;BME280;4351;51.422;6.794;2022-12-11T13:09:58;98741.41;;;2.12;100.00
8627;BME280;4351;51.422;6.794;2022-12-11T13:12:38;98749.19;;;2.15;100.00
8627;BME280;4351;51.422;6.794;2022-12-11T13:15:35;98752.03;;;2.12;100.00
8627;BME280;4351;51.422;6.794;2022-12-11T13:18:30;98764.22;;;2.00;100.00
8627;BME280;4351;51.422;6.794;2022-12-11T13:20:59;98767.50;;;2.05;100.00
8627;BME280;4351;51.422;6.794;2022-12-11T13:23:29;98763.81;;;2.08;100.00
8627;BME280;4351;51.422;6.794;2022-12-11T13:25:59;98751.78;;;2.17;100.00
8627;BME280;4351;51.422;6.794;2022-12-11T13:28:32;98772.31;;;1.99;100.00
8627;BME280;4351;51.422;6.794;2022-12-11T13:31:31;98761.16;;;2.08;100.00
8627;BME280;4351;51.422;6.794;2022-12-11T13:34:15;98770.75;;;1.94;100.00
8627;BME280;4351;51.422;6.794;2022-12-11T13:36:48;98759.06;;;2.13;100.00
8627;BME280;4351;51.422;6.794;2022-12-11T13:39:18;98756.59;;;2.10;100.00
8627;BME280;4351;51.422;6.794;2022-12-11T13:41:51;98771.44;;;1.98;100.00
8627;BME280;4351;51.422;6.794;2022-12-11T13:44:23;98773.69;;;2.06;100.00
8627;BME280;4351;51.422;6.794;2022-12-11T13:46:53;98779.25;;;2.01;100.00